sensor_id;sensor_type;location;lat;lon;timestamp;temperature;humidity
3784;DHT22;1907;49.238;9.262;2022-08-27T00:01:50;18.40;99.90
3784;DHT22;1907;49.238;9.262;2022-08-27T00:04:16;18.40;99.90
3784;DHT22;1907;49.238;9.262;2022-08-27T00:06:41;18.40;99.90
3784;DHT22;1907;49.238;9.262;2022-08-27T00:09:07;18.40;99.90
3784;DHT22;1907;49.238;9.262;2022-08-27T00:11:33;18.40;99.90
3784;DHT22;1907;49.238;9.262;2022-08-27T00:13:59;18.50;99.90
3784;DHT22;1907;49.238;9.262;2022-08-27T00:16:26;18.50;99.90
3784;DHT22;1907;49.238;9.262;2022-08-27T00:18:53;18.40;99.90
3784;DHT22;1907;49.238;9.262;2022-08-27T00:21:19;18.40;99.90
3784;DHT22;1907;49.238;9.262;2022-08-27T00:23:45;18.40;99.90
3784;DHT22;1907;49.238;9.262;2022-08-27T00:26:11;18.40;99.90
3784;DHT22;1907;49.238;9.262;2022-08-27T00:28:37;18.40;99.90
3784;DHT22;1907;49.238;9.262;2022-08-27T00:31:04;18.40;99.90
3784;DHT22;1907;49.238;9.262;2022-08-27T00:33:30;18.40;99.90
3784;DHT22;1907;49.238;9.262;2022-08-27T00:35:56;18.40;99.90
3784;DHT22;1907;49.238;9.262;2022-08-27T00:38:22;18.40;99.90
3784;DHT22;1907;49.238;9.262;2022-08-27T00:40:49;18.40;99.90
3784;DHT22;1907;49.238;9.262;2022-08-27T00:43:30;18.40;99.90
3784;DHT22;1907;49.238;9.262;2022-08-27T00:46:02;18.40;99.90
3784;DHT22;1907;49.238;9.262;2022-08-27T00:48:31;18.40;99.90
3784;DHT22;1907;49.238;9.262;2022-08-27T00:50:59;18.40;99.90
3784;DHT22;1907;49.238;9.262;2022-08-27T00:53:28;18.40;99.90
3784;DHT22;1907;49.238;9.262;2022-08-27T00:56:13;18.40;99.90
3784;DHT22;1907;49.238;9.262;2022-08-27T00:58:46;18.40;99.90
3784;DHT22;1907;49.238;9.262;2022-08-27T01:01:18;18.40;99.90
3784;DHT22;1907;49.238;9.262;2022-08-27T01:03:47;18.40;99.90
3784;DHT22;1907;49.238;9.262;2022-08-27T01:06:14;18.40;99.90
3784;DHT22;1907;49.238;9.262;2022-08-27T01:08:45;18.40;99.90
3784;DHT22;1907;49.238;9.262;2022-08-27T01:11:12;18.40;99.90
3784;DHT22;1907;49.238;9.262;2022-08-27T01:13:38;18.40;99.90
3784;DHT22;1907;49.238;9.262;2022-08-27T01:16:06;18.40;99.90
3784;DHT22;1907;49.238;9.262;2022-08-27T01:18:33;18.40;99.90
3784;DHT22;1907;49.238;9.262;2022-08-27T01:26:16;18.40;99.90
3784;DHT22;1907;49.238;9.262;2022-08-27T01:28:42;18.40;99.90
3784;DHT22;1907;49.238;9.262;2022-08-27T01:31:10;18.40;99.90
3784;DHT22;1907;49.238;9.262;2022-08-27T01:33:36;18.40;99.90
3784;DHT22;1907;49.238;9.262;2022-08-27T01:36:03;18.40;99.90
3784;DHT22;1907;49.238;9.262;2022-08-27T01:38:29;18.40;99.90
3784;DHT22;1907;49.238;9.262;2022-08-27T01:40:55;18.40;99.90
3784;DHT22;1907;49.238;9.262;2022-08-27T01:43:21;18.50;99.90
3784;DHT22;1907;49.238;9.262;2022-08-27T01:45:49;18.50;99.90
3784;DHT22;1907;49.238;9.262;2022-08-27T01:48:17;18.40;99.90
3784;DHT22;1907;49.238;9.262;2022-08-27T01:50:44;18.40;99.90
3784;DHT22;1907;49.238;9.262;2022-08-27T01:53:15;18.50;99.90
3784;DHT22;1907;49.238;9.262;2022-08-27T01:55:43;18.50;99.90
3784;DHT22;1907;49.238;9.262;2022-08-27T01:58:09;18.50;99.90
3784;DHT22;1907;49.238;9.262;2022-08-27T02:00:38;18.50;99.90
3784;DHT22;1907;49.238;9.262;2022-08-27T02:03:06;18.50;99.90
3784;DHT22;1907;49.238;9.262;2022-08-27T02:05:32;18.50;99.90
3784;DHT22;1907;49.238;9.262;2022-08-27T02:07:58;18.50;99.90
3784;DHT22;1907;49.238;9.262;2022-08-27T02:10:32;18.50;99.90
3784;DHT22;1907;49.238;9.262;2022-08-27T02:12:58;18.60;99.90
3784;DHT22;1907;49.238;9.262;2022-08-27T02:15:25;18.50;99.90
3784;DHT22;1907;49.238;9.262;2022-08-27T02:17:51;18.50;99.90
3784;DHT22;1907;49.238;9.262;2022-08-27T02:20:17;18.50;99.90
3784;DHT22;1907;49.238;9.262;2022-08-27T02:22:43;18.60;99.90
3784;DHT22;1907;49.238;9.262;2022-08-27T02:25:10;18.60;99.90
3784;DHT22;1907;49.238;9.262;2022-08-27T02:27:39;18.60;99.90
3784;DHT22;1907;49.238;9.262;2022-08-27T02:30:07;18.60;99.90
3784;DHT22;1907;49.238;9.262;2022-08-27T02:32:32;18.60;99.90
3784;DHT22;1907;49.238;9.262;2022-08-27T02:34:59;18.60;99.90
3784;DHT22;1907;49.238;9.262;2022-08-27T02:37:25;18.60;99.90
3784;DHT22;1907;49.238;9.262;2022-08-27T02:39:51;18.50;99.90
3784;DHT22;1907;49.238;9.262;2022-08-27T02:42:17;18.50;99.90
3784;DHT22;1907;49.238;9.262;2022-08-27T02:44:42;18.50;99.90
3784;DHT22;1907;49.238;9.262;2022-08-27T02:47:08;18.50;99.90
3784;DHT22;1907;49.238;9.262;2022-08-27T02:49:34;18.50;99.90
3784;DHT22;1907;49.238;9.262;2022-08-27T02:52:00;18.50;99.90
3784;DHT22;1907;49.238;9.262;2022-08-27T02:54:28;18.50;99.90
3784;DHT22;1907;49.238;9.262;2022-08-27T02:56:53;18.50;99.90
3784;DHT22;1907;49.238;9.262;2022-08-27T02:59:20;18.50;99.90
3784;DHT22;1907;49.238;9.262;2022-08-27T03:01:46;18.60;99.90
3784;DHT22;1907;49.238;9.262;2022-08-27T03:04:12;18.60;99.90
3784;DHT22;1907;49.238;9.262;2022-08-27T03:06:38;18.60;99.90
3784;DHT22;1907;49.238;9.262;2022-08-27T03:09:04;18.50;99.90
3784;DHT22;1907;49.238;9.262;2022-08-27T03:11:30;18.50;99.90
3784;DHT22;1907;49.238;9.262;2022-08-27T03:13:57;18.60;99.90
3784;DHT22;1907;49.238;9.262;2022-08-27T03:16:23;18.60;99.90
3784;DHT22;1907;49.238;9.262;2022-08-27T03:18:49;18.60;99.90
3784;DHT22;1907;49.238;9.262;2022-08-27T03:21:23;18.60;99.90
3784;DHT22;1907;49.238;9.262;2022-08-27T03:23:49;18.60;99.90
3784;DHT22;1907;49.238;9.262;2022-08-27T03:26:15;18.60;99.90
3784;DHT22;1907;49.238;9.262;2022-08-27T03:28:41;18.60;99.90
3784;DHT22;1907;49.238;9.262;2022-08-27T03:31:14;18.60;99.90
3784;DHT22;1907;49.238;9.262;2022-08-27T03:33:40;18.60;99.90
3784;DHT22;1907;49.238;9.262;2022-08-27T03:36:07;18.60;99.90
3784;DHT22;1907;49.238;9.262;2022-08-27T03:38:34;18.60;99.90
3784;DHT22;1907;49.238;9.262;2022-08-27T03:41:01;18.50;99.90
3784;DHT22;1907;49.238;9.262;2022-08-27T03:43:27;18.50;99.90
3784;DHT22;1907;49.238;9.262;2022-08-27T03:45:53;18.50;99.90
3784;DHT22;1907;49.238;9.262;2022-08-27T03:48:19;18.50;99.90
3784;DHT22;1907;49.238;9.262;2022-08-27T03:50:48;18.50;99.90
3784;DHT22;1907;49.238;9.262;2022-08-27T03:53:16;18.50;99.90
3784;DHT22;1907;49.238;9.262;2022-08-27T03:55:42;18.50;99.90
3784;DHT22;1907;49.238;9.262;2022-08-27T03:58:11;18.50;99.90
3784;DHT22;1907;49.238;9.262;2022-08-27T04:00:39;18.50;99.90
3784;DHT22;1907;49.238;9.262;2022-08-27T04:03:05;18.60;99.90
3784;DHT22;1907;49.238;9.262;2022-08-27T04:05:33;18.60;99.90
3784;DHT22;1907;49.238;9.262;2022-08-27T04:07:58;18.60;99.90
3784;DHT22;1907;49.238;9.262;2022-08-27T04:10:25;18.60;99.90
3784;DHT22;1907;49.238;9.262;2022-08-27T04:12:52;18.60;99.90
3784;DHT22;1907;49.238;9.262;2022-08-27T04:15:18;18.60;99.90
3784;DHT22;1907;49.238;9.262;2022-08-27T04:17:43;18.60;99.90
3784;DHT22;1907;49.238;9.262;2022-08-27T04:20:09;18.60;99.90
3784;DHT22;1907;49.238;9.262;2022-08-27T04:22:35;18.50;99.90
3784;DHT22;1907;49.238;9.262;2022-08-27T04:25:01;18.50;99.90
3784;DHT22;1907;49.238;9.262;2022-08-27T04:27:27;18.50;99.90
3784;DHT22;1907;49.238;9.262;2022-08-27T04:29:57;18.60;99.90
3784;DHT22;1907;49.238;9.262;2022-08-27T04:32:24;18.60;99.90
3784;DHT22;1907;49.238;9.262;2022-08-27T04:34:54;18.60;99.90
3784;DHT22;1907;49.238;9.262;2022-08-27T04:37:21;18.60;99.90
3784;DHT22;1907;49.238;9.262;2022-08-27T04:39:47;18.60;99.90
3784;DHT22;1907;49.238;9.262;2022-08-27T04:42:12;18.60;99.90
3784;DHT22;1907;49.238;9.262;2022-08-27T04:44:41;18.60;99.90
3784;DHT22;1907;49.238;9.262;2022-08-27T04:47:06;18.50;99.90
3784;DHT22;1907;49.238;9.262;2022-08-27T04:52:07;18.50;99.90
3784;DHT22;1907;49.238;9.262;2022-08-27T04:54:33;18.60;99.90
3784;DHT22;1907;49.238;9.262;2022-08-27T04:57:01;18.60;99.90
3784;DHT22;1907;49.238;9.262;2022-08-27T04:59:28;18.60;99.90
3784;DHT22;1907;49.238;9.262;2022-08-27T05:01:54;18.70;99.90
3784;DHT22;1907;49.238;9.262;2022-08-27T05:04:19;18.70;99.90
3784;DHT22;1907;49.238;9.262;2022-08-27T05:06:45;18.70;99.90
3784;DHT22;1907;49.238;9.262;2022-08-27T05:09:15;18.70;99.90
3784;DHT22;1907;49.238;9.262;2022-08-27T05:11:41;18.70;99.90
3784;DHT22;1907;49.238;9.262;2022-08-27T05:14:08;18.70;99.90
3784;DHT22;1907;49.238;9.262;2022-08-27T05:16:34;18.70;99.90
3784;DHT22;1907;49.238;9.262;2022-08-27T05:19:01;18.80;99.90
3784;DHT22;1907;49.238;9.262;2022-08-27T05:21:29;18.80;99.90
3784;DHT22;1907;49.238;9.262;2022-08-27T05:23:57;18.90;99.90
3784;DHT22;1907;49.238;9.262;2022-08-27T05:26:23;18.90;99.90
3784;DHT22;1907;49.238;9.262;2022-08-27T05:28:49;18.90;99.90
3784;DHT22;1907;49.238;9.262;2022-08-27T05:31:16;18.90;99.90
3784;DHT22;1907;49.238;9.262;2022-08-27T05:33:43;18.90;99.90
3784;DHT22;1907;49.238;9.262;2022-08-27T05:36:23;18.90;99.90
3784;DHT22;1907;49.238;9.262;2022-08-27T05:38:54;18.90;99.90
3784;DHT22;1907;49.238;9.262;2022-08-27T05:41:23;18.90;99.90
3784;DHT22;1907;49.238;9.262;2022-08-27T05:43:53;18.90;99.90
3784;DHT22;1907;49.238;9.262;2022-08-27T05:46:21;18.90;99.90
3784;DHT22;1907;49.238;9.262;2022-08-27T05:48:47;18.90;99.90
3784;DHT22;1907;49.238;9.262;2022-08-27T05:51:24;18.90;99.90
3784;DHT22;1907;49.238;9.262;2022-08-27T05:53:53;19.00;99.90
3784;DHT22;1907;49.238;9.262;2022-08-27T05:56:22;19.00;99.90
3784;DHT22;1907;49.238;9.262;2022-08-27T05:58:48;19.10;99.90
3784;DHT22;1907;49.238;9.262;2022-08-27T06:01:42;19.10;99.90
3784;DHT22;1907;49.238;9.262;2022-08-27T06:04:10;19.10;99.90
3784;DHT22;1907;49.238;9.262;2022-08-27T06:06:38;19.10;99.90
3784;DHT22;1907;49.238;9.262;2022-08-27T06:09:05;19.00;99.90
3784;DHT22;1907;49.238;9.262;2022-08-27T06:11:37;19.00;99.90
3784;DHT22;1907;49.238;9.262;2022-08-27T06:14:07;19.00;99.90
3784;DHT22;1907;49.238;9.262;2022-08-27T06:16:40;19.00;99.90
3784;DHT22;1907;49.238;9.262;2022-08-27T06:19:08;19.00;99.90
3784;DHT22;1907;49.238;9.262;2022-08-27T06:21:34;19.10;99.90
3784;DHT22;1907;49.238;9.262;2022-08-27T06:24:00;19.10;99.90
3784;DHT22;1907;49.238;9.262;2022-08-27T06:26:26;19.10;99.90
3784;DHT22;1907;49.238;9.262;2022-08-27T06:28:52;19.10;99.90
3784;DHT22;1907;49.238;9.262;2022-08-27T06:31:24;19.10;99.90
3784;DHT22;1907;49.238;9.262;2022-08-27T06:33:51;19.00;99.90
3784;DHT22;1907;49.238;9.262;2022-08-27T06:36:21;19.10;99.90
3784;DHT22;1907;49.238;9.262;2022-08-27T06:38:48;19.10;99.90
3784;DHT22;1907;49.238;9.262;2022-08-27T06:41:16;19.10;99.90
3784;DHT22;1907;49.238;9.262;2022-08-27T06:43:42;19.10;99.90
3784;DHT22;1907;49.238;9.262;2022-08-27T06:46:12;19.10;99.90
3784;DHT22;1907;49.238;9.262;2022-08-27T06:48:38;19.10;99.90
3784;DHT22;1907;49.238;9.262;2022-08-27T06:51:13;19.00;99.90
3784;DHT22;1907;49.238;9.262;2022-08-27T06:53:39;19.00;99.90
3784;DHT22;1907;49.238;9.262;2022-08-27T06:56:05;19.10;99.90
3784;DHT22;1907;49.238;9.262;2022-08-27T06:58:31;19.10;99.90
3784;DHT22;1907;49.238;9.262;2022-08-27T07:00:59;19.20;99.90
3784;DHT22;1907;49.238;9.262;2022-08-27T07:03:24;19.20;99.90
3784;DHT22;1907;49.238;9.262;2022-08-27T07:05:50;19.20;99.90
3784;DHT22;1907;49.238;9.262;2022-08-27T07:08:16;19.30;99.90
3784;DHT22;1907;49.238;9.262;2022-08-27T07:10:42;19.30;99.90
3784;DHT22;1907;49.238;9.262;2022-08-27T07:13:07;19.40;99.90
3784;DHT22;1907;49.238;9.262;2022-08-27T07:15:35;19.40;99.90
3784;DHT22;1907;49.238;9.262;2022-08-27T07:18:02;19.50;99.90
3784;DHT22;1907;49.238;9.262;2022-08-27T07:20:28;19.50;99.90
3784;DHT22;1907;49.238;9.262;2022-08-27T07:22:53;19.50;99.90
3784;DHT22;1907;49.238;9.262;2022-08-27T07:25:23;19.50;99.90
3784;DHT22;1907;49.238;9.262;2022-08-27T07:27:49;19.50;99.90
3784;DHT22;1907;49.238;9.262;2022-08-27T07:30:16;19.50;99.90
3784;DHT22;1907;49.238;9.262;2022-08-27T07:32:43;19.60;99.90
3784;DHT22;1907;49.238;9.262;2022-08-27T07:35:09;19.70;99.90
3784;DHT22;1907;49.238;9.262;2022-08-27T07:37:36;19.80;99.90
3784;DHT22;1907;49.238;9.262;2022-08-27T07:40:04;19.80;99.90
3784;DHT22;1907;49.238;9.262;2022-08-27T07:42:30;19.80;99.90
3784;DHT22;1907;49.238;9.262;2022-08-27T07:45:14;19.80;99.90
3784;DHT22;1907;49.238;9.262;2022-08-27T07:47:40;20.00;99.90
3784;DHT22;1907;49.238;9.262;2022-08-27T07:50:07;20.10;99.90
3784;DHT22;1907;49.238;9.262;2022-08-27T07:52:32;20.10;99.90
3784;DHT22;1907;49.238;9.262;2022-08-27T07:54:58;20.20;99.90
3784;DHT22;1907;49.238;9.262;2022-08-27T07:57:24;20.20;99.90
3784;DHT22;1907;49.238;9.262;2022-08-27T07:59:50;20.10;99.90
3784;DHT22;1907;49.238;9.262;2022-08-27T08:02:17;20.10;99.90
3784;DHT22;1907;49.238;9.262;2022-08-27T08:04:43;20.10;99.90
3784;DHT22;1907;49.238;9.262;2022-08-27T08:07:09;20.20;99.90
3784;DHT22;1907;49.238;9.262;2022-08-27T08:09:35;20.30;99.90
3784;DHT22;1907;49.238;9.262;2022-08-27T08:12:01;20.40;99.90
3784;DHT22;1907;49.238;9.262;2022-08-27T08:14:27;20.50;99.90
3784;DHT22;1907;49.238;9.262;2022-08-27T08:16:52;20.70;99.90
3784;DHT22;1907;49.238;9.262;2022-08-27T08:19:18;20.80;99.90
3784;DHT22;1907;49.238;9.262;2022-08-27T08:21:43;21.00;99.90
3784;DHT22;1907;49.238;9.262;2022-08-27T08:24:09;21.10;99.90
3784;DHT22;1907;49.238;9.262;2022-08-27T08:26:35;21.20;99.90
3784;DHT22;1907;49.238;9.262;2022-08-27T08:29:01;21.30;99.90
3784;DHT22;1907;49.238;9.262;2022-08-27T08:31:29;21.30;99.90
3784;DHT22;1907;49.238;9.262;2022-08-27T08:33:55;21.40;99.90
3784;DHT22;1907;49.238;9.262;2022-08-27T08:36:21;21.50;99.90
3784;DHT22;1907;49.238;9.262;2022-08-27T08:38:46;21.50;99.90
3784;DHT22;1907;49.238;9.262;2022-08-27T08:43:53;21.70;99.90
3784;DHT22;1907;49.238;9.262;2022-08-27T08:49:14;22.00;99.90
3784;DHT22;1907;49.238;9.262;2022-08-27T08:51:42;22.10;99.90
3784;DHT22;1907;49.238;9.262;2022-08-27T08:54:19;22.10;99.90
3784;DHT22;1907;49.238;9.262;2022-08-27T08:59:40;22.20;99.90
3784;DHT22;1907;49.238;9.262;2022-08-27T09:02:12;22.20;99.90
3784;DHT22;1907;49.238;9.262;2022-08-27T09:04:40;22.10;99.90
3784;DHT22;1907;49.238;9.262;2022-08-27T09:07:53;22.00;99.90
3784;DHT22;1907;49.238;9.262;2022-08-27T09:13:23;21.90;99.90
3784;DHT22;1907;49.238;9.262;2022-08-27T09:15:56;21.90;99.90
3784;DHT22;1907;49.238;9.262;2022-08-27T09:18:22;22.00;99.90
3784;DHT22;1907;49.238;9.262;2022-08-27T09:20:50;21.90;99.90
3784;DHT22;1907;49.238;9.262;2022-08-27T09:23:28;22.00;99.90
3784;DHT22;1907;49.238;9.262;2022-08-27T09:25:56;22.10;99.90
3784;DHT22;1907;49.238;9.262;2022-08-27T09:28:26;22.10;99.90
3784;DHT22;1907;49.238;9.262;2022-08-27T09:31:16;22.10;99.90
3784;DHT22;1907;49.238;9.262;2022-08-27T09:33:42;22.10;99.90
3784;DHT22;1907;49.238;9.262;2022-08-27T09:36:11;22.10;99.90
3784;DHT22;1907;49.238;9.262;2022-08-27T09:38:40;22.00;99.90
3784;DHT22;1907;49.238;9.262;2022-08-27T09:41:11;22.00;99.90
3784;DHT22;1907;49.238;9.262;2022-08-27T09:43:41;22.10;99.90
3784;DHT22;1907;49.238;9.262;2022-08-27T09:46:22;22.20;99.90
3784;DHT22;1907;49.238;9.262;2022-08-27T09:48:48;22.30;99.90
3784;DHT22;1907;49.238;9.262;2022-08-27T09:51:32;22.50;99.90
3784;DHT22;1907;49.238;9.262;2022-08-27T09:54:01;22.60;99.90
3784;DHT22;1907;49.238;9.262;2022-08-27T09:59:08;23.00;99.90
3784;DHT22;1907;49.238;9.262;2022-08-27T10:01:36;23.10;99.90
3784;DHT22;1907;49.238;9.262;2022-08-27T10:04:15;23.20;99.90
3784;DHT22;1907;49.238;9.262;2022-08-27T10:06:47;23.30;99.90
3784;DHT22;1907;49.238;9.262;2022-08-27T10:09:32;23.40;99.90
3784;DHT22;1907;49.238;9.262;2022-08-27T10:12:09;23.40;99.90
3784;DHT22;1907;49.238;9.262;2022-08-27T10:14:37;23.40;99.90
3784;DHT22;1907;49.238;9.262;2022-08-27T10:17:36;23.30;99.90
3784;DHT22;1907;49.238;9.262;2022-08-27T10:20:31;23.40;99.90
3784;DHT22;1907;49.238;9.262;2022-08-27T10:23:17;23.50;99.90
3784;DHT22;1907;49.238;9.262;2022-08-27T10:25:51;23.50;99.90
3784;DHT22;1907;49.238;9.262;2022-08-27T10:28:24;23.50;99.90
3784;DHT22;1907;49.238;9.262;2022-08-27T10:42:34;23.60;99.90
3784;DHT22;1907;49.238;9.262;2022-08-27T10:51:02;24.30;99.90
3784;DHT22;1907;49.238;9.262;2022-08-27T10:53:55;24.50;99.90
3784;DHT22;1907;49.238;9.262;2022-08-27T11:01:48;24.70;99.90
3784;DHT22;1907;49.238;9.262;2022-08-27T11:04:27;24.70;99.90
3784;DHT22;1907;49.238;9.262;2022-08-27T11:06:58;24.90;99.90
3784;DHT22;1907;49.238;9.262;2022-08-27T11:09:48;25.10;99.90
3784;DHT22;1907;49.238;9.262;2022-08-27T11:12:21;25.20;99.90
3784;DHT22;1907;49.238;9.262;2022-08-27T11:14:52;25.30;99.90
3784;DHT22;1907;49.238;9.262;2022-08-27T11:20:26;26.00;99.90
3784;DHT22;1907;49.238;9.262;2022-08-27T11:25:41;26.20;99.90
3784;DHT22;1907;49.238;9.262;2022-08-27T11:28:12;26.40;99.90
3784;DHT22;1907;49.238;9.262;2022-08-27T11:36:21;26.90;99.90
3784;DHT22;1907;49.238;9.262;2022-08-27T11:44:00;27.30;99.90
3784;DHT22;1907;49.238;9.262;2022-08-27T11:46:34;27.00;99.90
3784;DHT22;1907;49.238;9.262;2022-08-27T11:49:03;26.70;99.90
3784;DHT22;1907;49.238;9.262;2022-08-27T11:51:30;26.60;99.90
3784;DHT22;1907;49.238;9.262;2022-08-27T11:54:04;26.50;99.90
3784;DHT22;1907;49.238;9.262;2022-08-27T11:56:41;26.60;99.90
3784;DHT22;1907;49.238;9.262;2022-08-27T11:59:31;26.70;99.90
3784;DHT22;1907;49.238;9.262;2022-08-27T12:02:26;26.90;99.90
3784;DHT22;1907;49.238;9.262;2022-08-27T12:05:05;26.90;99.90
3784;DHT22;1907;49.238;9.262;2022-08-27T12:07:37;26.80;99.90
3784;DHT22;1907;49.238;9.262;2022-08-27T12:10:26;26.70;99.90
3784;DHT22;1907;49.238;9.262;2022-08-27T12:31:34;25.20;99.90
3784;DHT22;1907;49.238;9.262;2022-08-27T12:34:01;25.10;99.90
3784;DHT22;1907;49.238;9.262;2022-08-27T12:36:29;25.10;99.90
3784;DHT22;1907;49.238;9.262;2022-08-27T12:38:58;25.10;99.90
3784;DHT22;1907;49.238;9.262;2022-08-27T12:41:29;25.10;99.90
3784;DHT22;1907;49.238;9.262;2022-08-27T12:44:07;25.10;99.90
3784;DHT22;1907;49.238;9.262;2022-08-27T12:46:45;25.10;99.90
3784;DHT22;1907;49.238;9.262;2022-08-27T12:49:15;24.90;99.90
3784;DHT22;1907;49.238;9.262;2022-08-27T12:51:43;24.80;99.90
3784;DHT22;1907;49.238;9.262;2022-08-27T12:57:09;24.70;99.90
3784;DHT22;1907;49.238;9.262;2022-08-27T13:04:57;24.50;99.90
3784;DHT22;1907;49.238;9.262;2022-08-27T13:07:30;24.40;99.90
3784;DHT22;1907;49.238;9.262;2022-08-27T13:10:11;24.30;99.90
3784;DHT22;1907;49.238;9.262;2022-08-27T13:12:39;24.30;99.90
3784;DHT22;1907;49.238;9.262;2022-08-27T13:15:09;24.20;99.90
3784;DHT22;1907;49.238;9.262;2022-08-27T13:17:41;24.20;99.90
3784;DHT22;1907;49.238;9.262;2022-08-27T13:22:40;24.20;99.90
3784;DHT22;1907;49.238;9.262;2022-08-27T13:25:27;24.20;99.90
3784;DHT22;1907;49.238;9.262;2022-08-27T13:30:35;24.20;99.90
3784;DHT22;1907;49.238;9.262;2022-08-27T13:33:03;24.20;99.90
3784;DHT22;1907;49.238;9.262;2022-08-27T13:35:30;24.20;99.90
3784;DHT22;1907;49.238;9.262;2022-08-27T13:37:57;24.10;99.90
3784;DHT22;1907;49.238;9.262;2022-08-27T13:40:29;24.10;99.90
3784;DHT22;1907;49.238;9.262;2022-08-27T13:43:04;24.20;99.90
3784;DHT22;1907;49.238;9.262;2022-08-27T13:45:30;24.30;99.90
3784;DHT22;1907;49.238;9.262;2022-08-27T13:47:58;24.30;99.90
3784;DHT22;1907;49.238;9.262;2022-08-27T13:50:27;24.40;99.90
3784;DHT22;1907;49.238;9.262;2022-08-27T13:53:05;24.40;99.90
3784;DHT22;1907;49.238;9.262;2022-08-27T13:55:50;24.30;99.90
3784;DHT22;1907;49.238;9.262;2022-08-27T13:58:29;24.10;99.90
3784;DHT22;1907;49.238;9.262;2022-08-27T14:01:11;24.10;99.90
3784;DHT22;1907;49.238;9.262;2022-08-27T14:06:44;24.00;99.90
3784;DHT22;1907;49.238;9.262;2022-08-27T14:09:29;24.00;99.90
3784;DHT22;1907;49.238;9.262;2022-08-27T14:12:02;24.10;99.90
3784;DHT22;1907;49.238;9.262;2022-08-27T14:14:29;24.10;99.90
3784;DHT22;1907;49.238;9.262;2022-08-27T14:17:01;24.10;99.90
3784;DHT22;1907;49.238;9.262;2022-08-27T14:19:32;24.10;99.90
3784;DHT22;1907;49.238;9.262;2022-08-27T14:21:58;24.10;99.90
3784;DHT22;1907;49.238;9.262;2022-08-27T14:24:24;24.20;99.90
3784;DHT22;1907;49.238;9.262;2022-08-27T14:26:52;24.40;99.90
3784;DHT22;1907;49.238;9.262;2022-08-27T14:29:19;24.50;99.90
3784;DHT22;1907;49.238;9.262;2022-08-27T14:31:45;24.60;99.90
3784;DHT22;1907;49.238;9.262;2022-08-27T14:34:11;24.80;99.90
3784;DHT22;1907;49.238;9.262;2022-08-27T14:36:38;24.80;99.90
3784;DHT22;1907;49.238;9.262;2022-08-27T14:39:06;24.90;99.90
3784;DHT22;1907;49.238;9.262;2022-08-27T14:41:32;25.00;99.90
3784;DHT22;1907;49.238;9.262;2022-08-27T14:43:58;25.20;99.90
3784;DHT22;1907;49.238;9.262;2022-08-27T14:46:27;25.30;99.90
3784;DHT22;1907;49.238;9.262;2022-08-27T14:48:57;25.30;99.90
3784;DHT22;1907;49.238;9.262;2022-08-27T14:51:25;25.30;99.90
3784;DHT22;1907;49.238;9.262;2022-08-27T14:53:52;25.30;99.90
3784;DHT22;1907;49.238;9.262;2022-08-27T14:56:19;25.30;99.90
3784;DHT22;1907;49.238;9.262;2022-08-27T14:58:45;25.40;99.90
3784;DHT22;1907;49.238;9.262;2022-08-27T15:01:11;25.20;99.90
3784;DHT22;1907;49.238;9.262;2022-08-27T15:03:44;25.00;99.90
3784;DHT22;1907;49.238;9.262;2022-08-27T15:06:11;24.90;99.90
3784;DHT22;1907;49.238;9.262;2022-08-27T15:08:37;24.80;99.90
3784;DHT22;1907;49.238;9.262;2022-08-27T15:11:02;24.60;99.90
3784;DHT22;1907;49.238;9.262;2022-08-27T15:13:29;24.50;99.90
3784;DHT22;1907;49.238;9.262;2022-08-27T15:15:55;24.30;99.90
3784;DHT22;1907;49.238;9.262;2022-08-27T15:18:21;24.10;99.90
3784;DHT22;1907;49.238;9.262;2022-08-27T15:20:47;23.90;99.90
3784;DHT22;1907;49.238;9.262;2022-08-27T15:23:14;23.70;99.90
3784;DHT22;1907;49.238;9.262;2022-08-27T15:25:41;23.50;99.90
3784;DHT22;1907;49.238;9.262;2022-08-27T15:28:08;23.40;99.90
3784;DHT22;1907;49.238;9.262;2022-08-27T15:30:34;23.20;99.90
3784;DHT22;1907;49.238;9.262;2022-08-27T15:33:03;23.10;99.90
3784;DHT22;1907;49.238;9.262;2022-08-27T15:35:29;22.90;99.90
3784;DHT22;1907;49.238;9.262;2022-08-27T15:37:56;22.80;99.90
3784;DHT22;1907;49.238;9.262;2022-08-27T15:40:23;22.60;99.90
3784;DHT22;1907;49.238;9.262;2022-08-27T15:42:55;22.50;99.90
3784;DHT22;1907;49.238;9.262;2022-08-27T15:45:21;22.40;99.90
3784;DHT22;1907;49.238;9.262;2022-08-27T15:47:47;22.20;99.90
3784;DHT22;1907;49.238;9.262;2022-08-27T15:50:13;22.00;99.90
3784;DHT22;1907;49.238;9.262;2022-08-27T15:52:40;21.90;99.90
3784;DHT22;1907;49.238;9.262;2022-08-27T15:55:07;21.70;99.90
3784;DHT22;1907;49.238;9.262;2022-08-27T15:57:37;21.60;99.90
3784;DHT22;1907;49.238;9.262;2022-08-27T16:00:03;21.50;99.90
3784;DHT22;1907;49.238;9.262;2022-08-27T16:02:29;21.50;99.90
3784;DHT22;1907;49.238;9.262;2022-08-27T16:04:54;21.40;99.90
3784;DHT22;1907;49.238;9.262;2022-08-27T16:07:20;21.30;99.90
3784;DHT22;1907;49.238;9.262;2022-08-27T16:09:46;21.20;99.90
3784;DHT22;1907;49.238;9.262;2022-08-27T16:12:11;21.00;99.90
3784;DHT22;1907;49.238;9.262;2022-08-27T16:14:37;20.80;99.90
3784;DHT22;1907;49.238;9.262;2022-08-27T16:17:03;20.70;99.90
3784;DHT22;1907;49.238;9.262;2022-08-27T16:19:28;20.60;99.90
3784;DHT22;1907;49.238;9.262;2022-08-27T16:21:55;20.50;99.90
3784;DHT22;1907;49.238;9.262;2022-08-27T16:24:21;20.40;99.90
3784;DHT22;1907;49.238;9.262;2022-08-27T16:26:47;20.40;99.90
3784;DHT22;1907;49.238;9.262;2022-08-27T16:29:13;20.30;99.90
3784;DHT22;1907;49.238;9.262;2022-08-27T16:31:39;20.20;99.90
3784;DHT22;1907;49.238;9.262;2022-08-27T16:34:12;20.30;99.90
3784;DHT22;1907;49.238;9.262;2022-08-27T16:36:39;20.30;99.90
3784;DHT22;1907;49.238;9.262;2022-08-27T16:39:05;20.30;99.90
3784;DHT22;1907;49.238;9.262;2022-08-27T16:41:30;20.30;99.90
3784;DHT22;1907;49.238;9.262;2022-08-27T16:43:56;20.20;99.90
3784;DHT22;1907;49.238;9.262;2022-08-27T16:46:23;20.20;99.90
3784;DHT22;1907;49.238;9.262;2022-08-27T16:48:49;20.20;99.90
3784;DHT22;1907;49.238;9.262;2022-08-27T16:51:34;20.20;99.90
3784;DHT22;1907;49.238;9.262;2022-08-27T16:54:01;20.20;99.90
3784;DHT22;1907;49.238;9.262;2022-08-27T16:56:27;20.20;99.90
3784;DHT22;1907;49.238;9.262;2022-08-27T16:58:53;20.20;99.90
3784;DHT22;1907;49.238;9.262;2022-08-27T17:01:21;20.30;99.90
3784;DHT22;1907;49.238;9.262;2022-08-27T17:04:05;20.30;99.90
3784;DHT22;1907;49.238;9.262;2022-08-27T17:06:31;20.30;99.90
3784;DHT22;1907;49.238;9.262;2022-08-27T17:08:56;20.30;99.90
3784;DHT22;1907;49.238;9.262;2022-08-27T17:11:26;20.30;99.90
3784;DHT22;1907;49.238;9.262;2022-08-27T17:13:54;20.30;99.90
3784;DHT22;1907;49.238;9.262;2022-08-27T17:16:22;20.30;99.90
3784;DHT22;1907;49.238;9.262;2022-08-27T17:18:49;20.30;99.90
3784;DHT22;1907;49.238;9.262;2022-08-27T17:21:17;20.30;99.90
3784;DHT22;1907;49.238;9.262;2022-08-27T17:23:48;20.30;99.90
3784;DHT22;1907;49.238;9.262;2022-08-27T17:26:14;20.30;99.90
3784;DHT22;1907;49.238;9.262;2022-08-27T17:28:42;20.30;99.90
3784;DHT22;1907;49.238;9.262;2022-08-27T17:31:13;20.30;99.90
3784;DHT22;1907;49.238;9.262;2022-08-27T17:33:43;20.30;99.90
3784;DHT22;1907;49.238;9.262;2022-08-27T17:36:10;20.30;99.90
3784;DHT22;1907;49.238;9.262;2022-08-27T17:38:37;20.30;99.90
3784;DHT22;1907;49.238;9.262;2022-08-27T17:43:35;20.30;99.90
3784;DHT22;1907;49.238;9.262;2022-08-27T17:46:01;20.30;99.90
3784;DHT22;1907;49.238;9.262;2022-08-27T17:48:26;20.30;99.90
3784;DHT22;1907;49.238;9.262;2022-08-27T17:50:52;20.30;99.90
3784;DHT22;1907;49.238;9.262;2022-08-27T17:53:18;20.30;99.90